sensor_id;sensor_type;location;lat;lon;timestamp;temperature;humidity
63039;DHT22;49125;48.812;9.206;2022-07-15T00:00:23;19.40;46.20
63039;DHT22;49125;48.812;9.206;2022-07-15T00:02:49;19.30;46.20
63039;DHT22;49125;48.812;9.206;2022-07-15T00:05:14;19.20;46.10
63039;DHT22;49125;48.812;9.206;2022-07-15T00:07:40;19.20;46.10
63039;DHT22;49125;48.812;9.206;2022-07-15T00:10:06;19.10;46.50
63039;DHT22;49125;48.812;9.206;2022-07-15T00:12:45;19.00;46.70
63039;DHT22;49125;48.812;9.206;2022-07-15T00:15:12;19.00;46.90
63039;DHT22;49125;48.812;9.206;2022-07-15T00:17:38;18.90;46.90
63039;DHT22;49125;48.812;9.206;2022-07-15T00:20:04;18.80;47.00
63039;DHT22;49125;48.812;9.206;2022-07-15T00:22:30;18.70;47.40
63039;DHT22;49125;48.812;9.206;2022-07-15T00:24:56;18.70;47.70
63039;DHT22;49125;48.812;9.206;2022-07-15T00:27:23;18.60;47.80
63039;DHT22;49125;48.812;9.206;2022-07-15T00:29:48;18.60;48.00
63039;DHT22;49125;48.812;9.206;2022-07-15T00:32:14;18.60;48.20
63039;DHT22;49125;48.812;9.206;2022-07-15T00:34:39;18.60;48.30
63039;DHT22;49125;48.812;9.206;2022-07-15T00:37:05;18.50;48.40
63039;DHT22;49125;48.812;9.206;2022-07-15T00:39:30;18.50;48.80
63039;DHT22;49125;48.812;9.206;2022-07-15T00:41:56;18.40;48.70
63039;DHT22;49125;48.812;9.206;2022-07-15T00:44:22;18.40;49.00
63039;DHT22;49125;48.812;9.206;2022-07-15T00:46:47;18.40;49.30
63039;DHT22;49125;48.812;9.206;2022-07-15T00:49:13;18.30;49.60
63039;DHT22;49125;48.812;9.206;2022-07-15T00:51:44;18.20;50.00
63039;DHT22;49125;48.812;9.206;2022-07-15T00:54:13;18.20;50.20
63039;DHT22;49125;48.812;9.206;2022-07-15T00:56:48;18.10;50.20
63039;DHT22;49125;48.812;9.206;2022-07-15T00:59:15;18.10;50.50
63039;DHT22;49125;48.812;9.206;2022-07-15T01:01:41;18.10;50.70
63039;DHT22;49125;48.812;9.206;2022-07-15T01:04:09;18.00;50.40
63039;DHT22;49125;48.812;9.206;2022-07-15T01:06:35;18.00;50.70
63039;DHT22;49125;48.812;9.206;2022-07-15T01:09:01;17.90;50.60
63039;DHT22;49125;48.812;9.206;2022-07-15T01:11:27;17.90;50.60
63039;DHT22;49125;48.812;9.206;2022-07-15T01:13:56;17.80;51.20
63039;DHT22;49125;48.812;9.206;2022-07-15T01:16:21;17.80;51.10
63039;DHT22;49125;48.812;9.206;2022-07-15T01:18:47;17.70;51.60
63039;DHT22;49125;48.812;9.206;2022-07-15T01:21:13;17.70;52.10
63039;DHT22;49125;48.812;9.206;2022-07-15T01:23:38;17.60;52.40
63039;DHT22;49125;48.812;9.206;2022-07-15T01:26:11;17.50;52.30
63039;DHT22;49125;48.812;9.206;2022-07-15T01:28:37;17.40;53.50
63039;DHT22;49125;48.812;9.206;2022-07-15T01:31:03;17.40;53.40
63039;DHT22;49125;48.812;9.206;2022-07-15T01:33:30;17.30;53.40
63039;DHT22;49125;48.812;9.206;2022-07-15T01:35:58;17.20;53.60
63039;DHT22;49125;48.812;9.206;2022-07-15T01:38:24;17.20;54.10
63039;DHT22;49125;48.812;9.206;2022-07-15T01:40:49;17.20;54.60
63039;DHT22;49125;48.812;9.206;2022-07-15T01:43:15;17.10;54.40
63039;DHT22;49125;48.812;9.206;2022-07-15T01:45:44;17.10;55.10
63039;DHT22;49125;48.812;9.206;2022-07-15T01:48:10;17.00;55.80
63039;DHT22;49125;48.812;9.206;2022-07-15T01:50:57;17.00;56.20
63039;DHT22;49125;48.812;9.206;2022-07-15T01:53:24;17.00;56.10
63039;DHT22;49125;48.812;9.206;2022-07-15T01:55:50;17.00;56.20
63039;DHT22;49125;48.812;9.206;2022-07-15T01:58:16;16.90;56.60
63039;DHT22;49125;48.812;9.206;2022-07-15T02:00:45;16.80;56.80
63039;DHT22;49125;48.812;9.206;2022-07-15T02:03:11;16.70;57.30
63039;DHT22;49125;48.812;9.206;2022-07-15T02:05:37;16.60;57.60
63039;DHT22;49125;48.812;9.206;2022-07-15T02:08:03;16.60;58.20
63039;DHT22;49125;48.812;9.206;2022-07-15T02:10:29;16.50;58.40
63039;DHT22;49125;48.812;9.206;2022-07-15T02:13:11;16.50;59.80
63039;DHT22;49125;48.812;9.206;2022-07-15T02:15:38;16.40;60.00
63039;DHT22;49125;48.812;9.206;2022-07-15T02:18:05;16.40;60.60
63039;DHT22;49125;48.812;9.206;2022-07-15T02:20:32;16.30;61.30
63039;DHT22;49125;48.812;9.206;2022-07-15T02:22:58;16.30;60.90
63039;DHT22;49125;48.812;9.206;2022-07-15T02:25:29;16.20;61.70
63039;DHT22;49125;48.812;9.206;2022-07-15T02:27:57;16.20;62.80
63039;DHT22;49125;48.812;9.206;2022-07-15T02:30:24;16.20;63.10
63039;DHT22;49125;48.812;9.206;2022-07-15T02:32:50;16.10;64.00
63039;DHT22;49125;48.812;9.206;2022-07-15T02:35:16;16.10;64.00
63039;DHT22;49125;48.812;9.206;2022-07-15T02:37:41;16.10;64.50
63039;DHT22;49125;48.812;9.206;2022-07-15T02:40:08;16.00;65.10
63039;DHT22;49125;48.812;9.206;2022-07-15T02:42:34;16.00;65.70
63039;DHT22;49125;48.812;9.206;2022-07-15T02:44:59;15.90;67.00
63039;DHT22;49125;48.812;9.206;2022-07-15T02:47:25;15.90;67.60
63039;DHT22;49125;48.812;9.206;2022-07-15T02:49:50;15.80;68.40
63039;DHT22;49125;48.812;9.206;2022-07-15T02:52:16;15.80;69.50
63039;DHT22;49125;48.812;9.206;2022-07-15T02:54:41;15.80;70.00
63039;DHT22;49125;48.812;9.206;2022-07-15T02:57:07;15.70;70.20
63039;DHT22;49125;48.812;9.206;2022-07-15T02:59:32;15.70;70.70
63039;DHT22;49125;48.812;9.206;2022-07-15T03:01:59;15.70;71.00
63039;DHT22;49125;48.812;9.206;2022-07-15T03:04:24;15.70;71.60
63039;DHT22;49125;48.812;9.206;2022-07-15T03:06:50;15.60;72.30
63039;DHT22;49125;48.812;9.206;2022-07-15T03:09:15;15.60;71.80
63039;DHT22;49125;48.812;9.206;2022-07-15T03:11:41;15.60;72.20
63039;DHT22;49125;48.812;9.206;2022-07-15T03:14:06;15.50;72.40
63039;DHT22;49125;48.812;9.206;2022-07-15T03:16:32;15.50;73.20
63039;DHT22;49125;48.812;9.206;2022-07-15T03:18:59;15.50;73.20
63039;DHT22;49125;48.812;9.206;2022-07-15T03:21:27;15.40;73.20
63039;DHT22;49125;48.812;9.206;2022-07-15T03:23:53;15.40;74.20
63039;DHT22;49125;48.812;9.206;2022-07-15T03:26:19;15.40;74.20
63039;DHT22;49125;48.812;9.206;2022-07-15T03:28:46;15.40;74.30
63039;DHT22;49125;48.812;9.206;2022-07-15T03:31:12;15.40;74.20
63039;DHT22;49125;48.812;9.206;2022-07-15T03:33:37;15.30;74.10
63039;DHT22;49125;48.812;9.206;2022-07-15T03:36:03;15.40;74.50
63039;DHT22;49125;48.812;9.206;2022-07-15T03:38:30;15.40;74.80
63039;DHT22;49125;48.812;9.206;2022-07-15T03:40:55;15.40;75.20
63039;DHT22;49125;48.812;9.206;2022-07-15T03:43:21;15.30;75.60
63039;DHT22;49125;48.812;9.206;2022-07-15T03:45:48;15.30;76.40
63039;DHT22;49125;48.812;9.206;2022-07-15T03:48:13;15.30;76.70
63039;DHT22;49125;48.812;9.206;2022-07-15T03:50:39;15.30;77.10
63039;DHT22;49125;48.812;9.206;2022-07-15T03:53:04;15.20;77.90
63039;DHT22;49125;48.812;9.206;2022-07-15T03:55:30;15.20;78.30
63039;DHT22;49125;48.812;9.206;2022-07-15T03:57:56;15.20;79.00
63039;DHT22;49125;48.812;9.206;2022-07-15T04:00:21;15.20;79.00
63039;DHT22;49125;48.812;9.206;2022-07-15T04:02:47;15.20;79.60
63039;DHT22;49125;48.812;9.206;2022-07-15T04:05:12;15.30;80.70
63039;DHT22;49125;48.812;9.206;2022-07-15T04:07:38;15.30;81.30
63039;DHT22;49125;48.812;9.206;2022-07-15T04:10:05;15.30;81.90
63039;DHT22;49125;48.812;9.206;2022-07-15T04:12:30;15.40;82.30
63039;DHT22;49125;48.812;9.206;2022-07-15T04:14:56;15.40;82.60
63039;DHT22;49125;48.812;9.206;2022-07-15T04:17:21;15.40;84.20
63039;DHT22;49125;48.812;9.206;2022-07-15T04:19:47;15.40;85.30
63039;DHT22;49125;48.812;9.206;2022-07-15T04:22:12;15.40;86.10
63039;DHT22;49125;48.812;9.206;2022-07-15T04:24:38;15.50;87.30
63039;DHT22;49125;48.812;9.206;2022-07-15T04:27:04;15.50;87.60
63039;DHT22;49125;48.812;9.206;2022-07-15T04:29:29;15.50;88.10
63039;DHT22;49125;48.812;9.206;2022-07-15T04:31:56;15.50;87.60
63039;DHT22;49125;48.812;9.206;2022-07-15T04:34:21;15.60;87.60
63039;DHT22;49125;48.812;9.206;2022-07-15T04:36:47;15.60;88.70
63039;DHT22;49125;48.812;9.206;2022-07-15T04:39:13;15.70;87.80
63039;DHT22;49125;48.812;9.206;2022-07-15T04:41:38;15.70;87.30
63039;DHT22;49125;48.812;9.206;2022-07-15T04:44:04;15.80;86.80
63039;DHT22;49125;48.812;9.206;2022-07-15T04:46:30;15.80;86.70
63039;DHT22;49125;48.812;9.206;2022-07-15T04:48:55;15.90;87.20
63039;DHT22;49125;48.812;9.206;2022-07-15T04:51:39;16.00;86.60
63039;DHT22;49125;48.812;9.206;2022-07-15T04:54:05;16.10;87.10
63039;DHT22;49125;48.812;9.206;2022-07-15T04:56:30;16.20;86.60
63039;DHT22;49125;48.812;9.206;2022-07-15T04:58:56;16.30;86.60
63039;DHT22;49125;48.812;9.206;2022-07-15T05:01:22;16.30;86.30
63039;DHT22;49125;48.812;9.206;2022-07-15T05:03:47;16.40;87.50
63039;DHT22;49125;48.812;9.206;2022-07-15T05:06:13;16.50;85.00
63039;DHT22;49125;48.812;9.206;2022-07-15T05:08:38;16.50;85.60
63039;DHT22;49125;48.812;9.206;2022-07-15T05:11:04;16.60;85.70
63039;DHT22;49125;48.812;9.206;2022-07-15T05:13:29;16.70;84.30
63039;DHT22;49125;48.812;9.206;2022-07-15T05:15:55;16.80;83.20
63039;DHT22;49125;48.812;9.206;2022-07-15T05:18:21;16.90;81.60
63039;DHT22;49125;48.812;9.206;2022-07-15T05:20:46;17.00;80.80
63039;DHT22;49125;48.812;9.206;2022-07-15T05:23:12;17.10;80.30
63039;DHT22;49125;48.812;9.206;2022-07-15T05:25:37;17.20;80.10
63039;DHT22;49125;48.812;9.206;2022-07-15T05:28:03;17.30;80.70
63039;DHT22;49125;48.812;9.206;2022-07-15T05:30:28;17.40;80.40
63039;DHT22;49125;48.812;9.206;2022-07-15T05:32:54;17.50;79.20
63039;DHT22;49125;48.812;9.206;2022-07-15T05:35:19;17.70;79.10
63039;DHT22;49125;48.812;9.206;2022-07-15T05:37:46;17.80;79.60
63039;DHT22;49125;48.812;9.206;2022-07-15T05:40:12;18.00;78.60
63039;DHT22;49125;48.812;9.206;2022-07-15T05:42:40;18.20;78.40
63039;DHT22;49125;48.812;9.206;2022-07-15T05:45:06;18.30;77.30
63039;DHT22;49125;48.812;9.206;2022-07-15T05:47:32;18.40;75.70
63039;DHT22;49125;48.812;9.206;2022-07-15T05:49:58;18.50;77.00
63039;DHT22;49125;48.812;9.206;2022-07-15T05:52:23;18.70;75.90
63039;DHT22;49125;48.812;9.206;2022-07-15T05:54:49;18.80;75.20
63039;DHT22;49125;48.812;9.206;2022-07-15T05:57:14;18.90;73.60
63039;DHT22;49125;48.812;9.206;2022-07-15T05:59:40;19.10;73.50
63039;DHT22;49125;48.812;9.206;2022-07-15T06:02:05;19.40;75.00
63039;DHT22;49125;48.812;9.206;2022-07-15T06:04:32;19.50;71.70
63039;DHT22;49125;48.812;9.206;2022-07-15T06:06:57;19.50;69.50
63039;DHT22;49125;48.812;9.206;2022-07-15T06:09:23;19.70;70.70
63039;DHT22;49125;48.812;9.206;2022-07-15T06:11:48;19.90;69.50
63039;DHT22;49125;48.812;9.206;2022-07-15T06:14:14;20.00;67.40
63039;DHT22;49125;48.812;9.206;2022-07-15T06:16:40;20.10;69.30
63039;DHT22;49125;48.812;9.206;2022-07-15T06:19:05;20.40;70.20
63039;DHT22;49125;48.812;9.206;2022-07-15T06:21:34;20.70;71.00
63039;DHT22;49125;48.812;9.206;2022-07-15T06:24:00;20.80;67.30
63039;DHT22;49125;48.812;9.206;2022-07-15T06:26:26;21.00;67.40
63039;DHT22;49125;48.812;9.206;2022-07-15T06:28:51;21.20;66.20
63039;DHT22;49125;48.812;9.206;2022-07-15T06:31:17;21.30;64.40
63039;DHT22;49125;48.812;9.206;2022-07-15T06:33:42;21.50;65.40
63039;DHT22;49125;48.812;9.206;2022-07-15T06:36:08;21.50;65.10
63039;DHT22;49125;48.812;9.206;2022-07-15T06:38:34;21.50;63.60
63039;DHT22;49125;48.812;9.206;2022-07-15T06:40:59;21.60;61.80
63039;DHT22;49125;48.812;9.206;2022-07-15T06:43:25;21.70;63.40
63039;DHT22;49125;48.812;9.206;2022-07-15T06:45:50;21.90;63.20
63039;DHT22;49125;48.812;9.206;2022-07-15T06:48:16;21.90;60.20
63039;DHT22;49125;48.812;9.206;2022-07-15T06:50:41;22.10;61.50
63039;DHT22;49125;48.812;9.206;2022-07-15T06:53:07;22.40;60.50
63039;DHT22;49125;48.812;9.206;2022-07-15T06:55:33;22.70;61.50
63039;DHT22;49125;48.812;9.206;2022-07-15T06:57:59;22.90;60.30
63039;DHT22;49125;48.812;9.206;2022-07-15T07:00:24;23.10;59.20
63039;DHT22;49125;48.812;9.206;2022-07-15T07:02:50;23.20;59.60
63039;DHT22;49125;48.812;9.206;2022-07-15T07:05:16;23.30;58.10
63039;DHT22;49125;48.812;9.206;2022-07-15T07:07:42;23.20;57.40
63039;DHT22;49125;48.812;9.206;2022-07-15T07:10:08;23.40;57.10
63039;DHT22;49125;48.812;9.206;2022-07-15T07:12:34;23.70;55.20
63039;DHT22;49125;48.812;9.206;2022-07-15T07:15:00;24.00;57.00
63039;DHT22;49125;48.812;9.206;2022-07-15T07:17:27;24.00;53.70
63039;DHT22;49125;48.812;9.206;2022-07-15T07:19:52;23.80;52.50
63039;DHT22;49125;48.812;9.206;2022-07-15T07:22:18;23.60;52.00
63039;DHT22;49125;48.812;9.206;2022-07-15T07:24:44;23.80;53.40
63039;DHT22;49125;48.812;9.206;2022-07-15T07:27:10;23.80;50.80
63039;DHT22;49125;48.812;9.206;2022-07-15T07:29:36;23.90;53.40
63039;DHT22;49125;48.812;9.206;2022-07-15T07:32:01;24.10;54.90
63039;DHT22;49125;48.812;9.206;2022-07-15T07:34:28;24.50;51.80
63039;DHT22;49125;48.812;9.206;2022-07-15T07:36:53;24.80;50.50
63039;DHT22;49125;48.812;9.206;2022-07-15T07:39:19;25.10;49.00
63039;DHT22;49125;48.812;9.206;2022-07-15T07:41:44;24.90;49.40
63039;DHT22;49125;48.812;9.206;2022-07-15T07:44:10;25.00;48.90
63039;DHT22;49125;48.812;9.206;2022-07-15T07:46:39;25.00;48.80
63039;DHT22;49125;48.812;9.206;2022-07-15T07:49:04;25.20;49.60
63039;DHT22;49125;48.812;9.206;2022-07-15T07:51:30;25.30;46.80
63039;DHT22;49125;48.812;9.206;2022-07-15T07:53:56;25.50;46.40
63039;DHT22;49125;48.812;9.206;2022-07-15T07:56:22;25.60;44.00
63039;DHT22;49125;48.812;9.206;2022-07-15T07:58:47;25.70;44.00
63039;DHT22;49125;48.812;9.206;2022-07-15T08:01:13;26.00;45.00
63039;DHT22;49125;48.812;9.206;2022-07-15T08:03:38;26.20;44.10
63039;DHT22;49125;48.812;9.206;2022-07-15T08:06:04;26.30;43.80
63039;DHT22;49125;48.812;9.206;2022-07-15T08:08:30;26.30;42.50
63039;DHT22;49125;48.812;9.206;2022-07-15T08:10:57;26.10;42.10
63039;DHT22;49125;48.812;9.206;2022-07-15T08:13:24;26.40;41.10
63039;DHT22;49125;48.812;9.206;2022-07-15T08:15:51;26.60;41.90
63039;DHT22;49125;48.812;9.206;2022-07-15T08:18:19;26.70;42.10
63039;DHT22;49125;48.812;9.206;2022-07-15T08:20:45;27.10;42.60
63039;DHT22;49125;48.812;9.206;2022-07-15T08:23:10;27.10;39.60
63039;DHT22;49125;48.812;9.206;2022-07-15T08:25:37;26.90;38.80
63039;DHT22;49125;48.812;9.206;2022-07-15T08:28:04;27.00;41.50
63039;DHT22;49125;48.812;9.206;2022-07-15T08:30:31;27.20;40.90
63039;DHT22;49125;48.812;9.206;2022-07-15T08:32:58;27.50;41.40
63039;DHT22;49125;48.812;9.206;2022-07-15T08:35:24;27.60;41.70
63039;DHT22;49125;48.812;9.206;2022-07-15T08:37:50;27.80;41.40
63039;DHT22;49125;48.812;9.206;2022-07-15T08:40:16;27.70;40.80
63039;DHT22;49125;48.812;9.206;2022-07-15T08:42:43;27.90;40.70
63039;DHT22;49125;48.812;9.206;2022-07-15T08:45:12;27.90;40.20
63039;DHT22;49125;48.812;9.206;2022-07-15T08:47:40;27.70;37.90
63039;DHT22;49125;48.812;9.206;2022-07-15T08:50:09;27.60;39.20
63039;DHT22;49125;48.812;9.206;2022-07-15T08:52:37;27.60;38.40
63039;DHT22;49125;48.812;9.206;2022-07-15T08:55:03;27.70;38.20
63039;DHT22;49125;48.812;9.206;2022-07-15T08:57:29;27.50;37.90
63039;DHT22;49125;48.812;9.206;2022-07-15T08:59:55;27.50;40.10
63039;DHT22;49125;48.812;9.206;2022-07-15T09:02:21;27.90;39.10
63039;DHT22;49125;48.812;9.206;2022-07-15T09:10:52;28.00;36.20
63039;DHT22;49125;48.812;9.206;2022-07-15T09:15:50;28.00;39.30
63039;DHT22;49125;48.812;9.206;2022-07-15T09:18:18;28.30;40.50
63039;DHT22;49125;48.812;9.206;2022-07-15T09:20:44;28.10;36.90
63039;DHT22;49125;48.812;9.206;2022-07-15T09:23:12;28.40;39.00
63039;DHT22;49125;48.812;9.206;2022-07-15T09:25:41;28.80;39.00
63039;DHT22;49125;48.812;9.206;2022-07-15T09:28:07;29.30;38.80
63039;DHT22;49125;48.812;9.206;2022-07-15T09:30:44;29.20;36.20
63039;DHT22;49125;48.812;9.206;2022-07-15T09:33:33;29.30;37.10
63039;DHT22;49125;48.812;9.206;2022-07-15T09:36:16;29.20;36.20
63039;DHT22;49125;48.812;9.206;2022-07-15T09:41:18;28.70;37.00
63039;DHT22;49125;48.812;9.206;2022-07-15T09:43:52;29.10;36.70
63039;DHT22;49125;48.812;9.206;2022-07-15T09:46:19;29.60;38.80
63039;DHT22;49125;48.812;9.206;2022-07-15T09:48:46;29.80;37.30
63039;DHT22;49125;48.812;9.206;2022-07-15T09:51:14;30.00;37.30
63039;DHT22;49125;48.812;9.206;2022-07-15T09:53:40;30.00;36.50
63039;DHT22;49125;48.812;9.206;2022-07-15T09:56:08;29.70;34.30
63039;DHT22;49125;48.812;9.206;2022-07-15T09:58:40;29.50;35.50
63039;DHT22;49125;48.812;9.206;2022-07-15T10:01:07;29.80;34.80
63039;DHT22;49125;48.812;9.206;2022-07-15T10:03:35;30.00;35.90
63039;DHT22;49125;48.812;9.206;2022-07-15T10:06:01;30.20;35.20
63039;DHT22;49125;48.812;9.206;2022-07-15T10:08:33;30.40;35.50
63039;DHT22;49125;48.812;9.206;2022-07-15T10:10:59;30.30;35.30
63039;DHT22;49125;48.812;9.206;2022-07-15T10:13:48;30.10;36.20
63039;DHT22;49125;48.812;9.206;2022-07-15T10:19:05;30.60;35.90
63039;DHT22;49125;48.812;9.206;2022-07-15T10:24:55;30.60;35.40
63039;DHT22;49125;48.812;9.206;2022-07-15T10:30:20;31.20;37.10
63039;DHT22;49125;48.812;9.206;2022-07-15T10:33:05;31.40;35.50
63039;DHT22;49125;48.812;9.206;2022-07-15T10:43:58;31.20;32.50
63039;DHT22;49125;48.812;9.206;2022-07-15T10:46:29;31.20;34.70
63039;DHT22;49125;48.812;9.206;2022-07-15T10:54:11;32.50;33.00
63039;DHT22;49125;48.812;9.206;2022-07-15T10:56:40;32.80;35.30
63039;DHT22;49125;48.812;9.206;2022-07-15T11:01:36;32.70;35.10
63039;DHT22;49125;48.812;9.206;2022-07-15T11:04:16;32.70;33.40
63039;DHT22;49125;48.812;9.206;2022-07-15T11:09:49;31.60;33.60
63039;DHT22;49125;48.812;9.206;2022-07-15T11:15:05;31.60;31.80
63039;DHT22;49125;48.812;9.206;2022-07-15T11:19:59;31.90;33.40
63039;DHT22;49125;48.812;9.206;2022-07-15T11:22:27;32.20;33.30
63039;DHT22;49125;48.812;9.206;2022-07-15T11:24:54;32.70;34.80
63039;DHT22;49125;48.812;9.206;2022-07-15T11:27:22;32.90;32.10
63039;DHT22;49125;48.812;9.206;2022-07-15T11:29:56;33.30;32.70
63039;DHT22;49125;48.812;9.206;2022-07-15T11:32:29;33.90;32.90
63039;DHT22;49125;48.812;9.206;2022-07-15T11:34:56;34.10;31.90
63039;DHT22;49125;48.812;9.206;2022-07-15T11:37:28;34.10;32.70
63039;DHT22;49125;48.812;9.206;2022-07-15T11:40:14;34.20;32.50
63039;DHT22;49125;48.812;9.206;2022-07-15T11:43:02;33.60;31.20
63039;DHT22;49125;48.812;9.206;2022-07-15T11:45:46;33.80;30.80
63039;DHT22;49125;48.812;9.206;2022-07-15T11:48:13;33.40;31.40
63039;DHT22;49125;48.812;9.206;2022-07-15T11:50:50;33.70;32.20
63039;DHT22;49125;48.812;9.206;2022-07-15T11:53:17;34.20;31.10
63039;DHT22;49125;48.812;9.206;2022-07-15T11:55:57;34.00;32.70
63039;DHT22;49125;48.812;9.206;2022-07-15T11:58:30;33.80;30.80
63039;DHT22;49125;48.812;9.206;2022-07-15T12:01:00;33.90;35.20
63039;DHT22;49125;48.812;9.206;2022-07-15T12:03:38;34.10;30.60
63039;DHT22;49125;48.812;9.206;2022-07-15T12:08:55;35.60;31.90
63039;DHT22;49125;48.812;9.206;2022-07-15T12:11:28;36.30;30.20
63039;DHT22;49125;48.812;9.206;2022-07-15T12:14:10;35.70;29.80
63039;DHT22;49125;48.812;9.206;2022-07-15T12:16:40;34.60;31.10
63039;DHT22;49125;48.812;9.206;2022-07-15T12:19:14;35.20;31.20
63039;DHT22;49125;48.812;9.206;2022-07-15T12:21:42;35.00;30.00
63039;DHT22;49125;48.812;9.206;2022-07-15T12:24:13;35.20;29.40
63039;DHT22;49125;48.812;9.206;2022-07-15T12:29:28;36.30;30.60
63039;DHT22;49125;48.812;9.206;2022-07-15T12:32:05;37.10;29.50
63039;DHT22;49125;48.812;9.206;2022-07-15T12:37:13;37.00;28.90
63039;DHT22;49125;48.812;9.206;2022-07-15T12:42:31;35.90;28.70
63039;DHT22;49125;48.812;9.206;2022-07-15T12:45:17;36.10;29.90
63039;DHT22;49125;48.812;9.206;2022-07-15T12:48:04;36.50;29.20
63039;DHT22;49125;48.812;9.206;2022-07-15T12:53:12;36.70;29.70
63039;DHT22;49125;48.812;9.206;2022-07-15T12:55:43;36.90;30.00
63039;DHT22;49125;48.812;9.206;2022-07-15T12:58:12;36.80;28.90
63039;DHT22;49125;48.812;9.206;2022-07-15T13:00:40;37.40;29.50
63039;DHT22;49125;48.812;9.206;2022-07-15T13:03:11;37.90;29.60
63039;DHT22;49125;48.812;9.206;2022-07-15T13:05:41;38.10;29.30
63039;DHT22;49125;48.812;9.206;2022-07-15T13:08:18;38.60;30.80
63039;DHT22;49125;48.812;9.206;2022-07-15T13:10:47;39.40;28.50
63039;DHT22;49125;48.812;9.206;2022-07-15T13:13:14;39.10;28.40
63039;DHT22;49125;48.812;9.206;2022-07-15T13:15:41;38.60;29.20
63039;DHT22;49125;48.812;9.206;2022-07-15T13:18:07;38.80;27.90
63039;DHT22;49125;48.812;9.206;2022-07-15T13:20:33;38.90;28.00
63039;DHT22;49125;48.812;9.206;2022-07-15T13:22:59;39.40;28.80
63039;DHT22;49125;48.812;9.206;2022-07-15T13:25:25;38.30;27.50
63039;DHT22;49125;48.812;9.206;2022-07-15T13:27:51;38.50;28.60
63039;DHT22;49125;48.812;9.206;2022-07-15T13:30:18;38.50;27.50
63039;DHT22;49125;48.812;9.206;2022-07-15T13:32:44;38.10;27.30
63039;DHT22;49125;48.812;9.206;2022-07-15T13:35:11;36.50;27.60
63039;DHT22;49125;48.812;9.206;2022-07-15T13:37:37;34.40;28.40
63039;DHT22;49125;48.812;9.206;2022-07-15T13:40:07;33.10;29.00
63039;DHT22;49125;48.812;9.206;2022-07-15T13:42:37;32.40;29.70
63039;DHT22;49125;48.812;9.206;2022-07-15T13:45:08;31.40;29.90
63039;DHT22;49125;48.812;9.206;2022-07-15T13:47:34;30.80;30.80
63039;DHT22;49125;48.812;9.206;2022-07-15T13:50:00;30.70;31.10
63039;DHT22;49125;48.812;9.206;2022-07-15T13:52:46;30.30;31.20
63039;DHT22;49125;48.812;9.206;2022-07-15T13:55:13;29.80;31.20
63039;DHT22;49125;48.812;9.206;2022-07-15T13:57:40;29.40;31.90
63039;DHT22;49125;48.812;9.206;2022-07-15T14:00:12;29.30;32.70
63039;DHT22;49125;48.812;9.206;2022-07-15T14:02:38;29.00;33.40
63039;DHT22;49125;48.812;9.206;2022-07-15T14:05:05;28.60;33.10
63039;DHT22;49125;48.812;9.206;2022-07-15T14:07:31;28.20;32.80
63039;DHT22;49125;48.812;9.206;2022-07-15T14:09:57;27.90;33.40
63039;DHT22;49125;48.812;9.206;2022-07-15T14:12:23;27.80;35.30
63039;DHT22;49125;48.812;9.206;2022-07-15T14:14:48;27.70;33.90
63039;DHT22;49125;48.812;9.206;2022-07-15T14:17:15;27.60;34.20
63039;DHT22;49125;48.812;9.206;2022-07-15T14:19:40;27.60;34.50
63039;DHT22;49125;48.812;9.206;2022-07-15T14:22:06;27.50;34.30
63039;DHT22;49125;48.812;9.206;2022-07-15T14:24:32;27.50;34.70
63039;DHT22;49125;48.812;9.206;2022-07-15T14:26:57;27.70;34.80
63039;DHT22;49125;48.812;9.206;2022-07-15T14:29:23;28.60;33.60
63039;DHT22;49125;48.812;9.206;2022-07-15T14:31:48;29.90;32.60
63039;DHT22;49125;48.812;9.206;2022-07-15T14:34:14;31.50;33.80
63039;DHT22;49125;48.812;9.206;2022-07-15T14:36:39;32.60;31.30
63039;DHT22;49125;48.812;9.206;2022-07-15T14:39:06;32.20;30.60
63039;DHT22;49125;48.812;9.206;2022-07-15T14:41:32;31.40;31.40
63039;DHT22;49125;48.812;9.206;2022-07-15T14:43:58;30.80;31.90
63039;DHT22;49125;48.812;9.206;2022-07-15T14:46:24;30.10;32.10
63039;DHT22;49125;48.812;9.206;2022-07-15T14:48:50;29.80;33.00
63039;DHT22;49125;48.812;9.206;2022-07-15T14:51:15;29.80;33.10
63039;DHT22;49125;48.812;9.206;2022-07-15T14:53:41;30.20;32.90
63039;DHT22;49125;48.812;9.206;2022-07-15T14:56:07;31.00;33.90
63039;DHT22;49125;48.812;9.206;2022-07-15T14:58:32;32.20;32.80
63039;DHT22;49125;48.812;9.206;2022-07-15T15:00:58;33.10;30.40
63039;DHT22;49125;48.812;9.206;2022-07-15T15:03:23;33.90;32.40
63039;DHT22;49125;48.812;9.206;2022-07-15T15:05:49;34.30;29.30
63039;DHT22;49125;48.812;9.206;2022-07-15T15:08:15;34.20;29.80
63039;DHT22;49125;48.812;9.206;2022-07-15T15:10:41;34.20;30.10
63039;DHT22;49125;48.812;9.206;2022-07-15T15:13:07;35.00;30.10
63039;DHT22;49125;48.812;9.206;2022-07-15T15:15:33;35.50;28.50
63039;DHT22;49125;48.812;9.206;2022-07-15T15:17:58;36.00;29.60
63039;DHT22;49125;48.812;9.206;2022-07-15T15:20:24;36.60;29.40
63039;DHT22;49125;48.812;9.206;2022-07-15T15:22:49;37.00;28.70
63039;DHT22;49125;48.812;9.206;2022-07-15T15:25:15;36.30;28.50
63039;DHT22;49125;48.812;9.206;2022-07-15T15:28:01;36.50;29.00
63039;DHT22;49125;48.812;9.206;2022-07-15T15:30:26;36.20;28.20
63039;DHT22;49125;48.812;9.206;2022-07-15T15:32:52;35.50;27.40
63039;DHT22;49125;48.812;9.206;2022-07-15T15:35:18;35.50;28.20
63039;DHT22;49125;48.812;9.206;2022-07-15T15:37:44;35.30;27.90
63039;DHT22;49125;48.812;9.206;2022-07-15T15:40:09;35.50;28.50
63039;DHT22;49125;48.812;9.206;2022-07-15T15:42:35;35.70;27.80
63039;DHT22;49125;48.812;9.206;2022-07-15T15:45:01;35.20;27.60
63039;DHT22;49125;48.812;9.206;2022-07-15T15:47:26;35.10;28.20
63039;DHT22;49125;48.812;9.206;2022-07-15T15:49:52;34.80;28.30
63039;DHT22;49125;48.812;9.206;2022-07-15T15:52:17;35.10;28.50
63039;DHT22;49125;48.812;9.206;2022-07-15T15:54:43;34.70;27.70
63039;DHT22;49125;48.812;9.206;2022-07-15T15:57:08;34.90;28.50
63039;DHT22;49125;48.812;9.206;2022-07-15T15:59:34;35.30;28.50
63039;DHT22;49125;48.812;9.206;2022-07-15T16:02:00;34.60;27.50
63039;DHT22;49125;48.812;9.206;2022-07-15T16:04:26;33.80;27.50
63039;DHT22;49125;48.812;9.206;2022-07-15T16:06:52;33.20;28.40
63039;DHT22;49125;48.812;9.206;2022-07-15T16:09:18;33.30;28.30
63039;DHT22;49125;48.812;9.206;2022-07-15T16:11:43;33.40;28.20
63039;DHT22;49125;48.812;9.206;2022-07-15T16:14:09;33.70;28.60
63039;DHT22;49125;48.812;9.206;2022-07-15T16:16:34;33.40;28.60
63039;DHT22;49125;48.812;9.206;2022-07-15T16:19:00;32.40;28.40
63039;DHT22;49125;48.812;9.206;2022-07-15T16:21:25;31.90;28.60
63039;DHT22;49125;48.812;9.206;2022-07-15T16:24:09;31.50;28.80
63039;DHT22;49125;48.812;9.206;2022-07-15T16:26:35;30.90;29.40
63039;DHT22;49125;48.812;9.206;2022-07-15T16:29:03;30.60;29.50